BDG weather

Blanding Municipal Airport
Blanding, Utah, United States

Public forecast

Using degrees Fahrenheit for public forecast. Weather courtesy of forecast.io.

Current aviation weather report (METAR) for Blanding Municipal Airport

Retrieved 2020/04/05 22:15 UTC (0 seconds ago):

KBDG 052215Z AUTO 21012G18KT 10SM 17/M06 A2991 RMK AO1 T01661059

Closest aviation forecast (TAF) to Blanding Municipal Airport

Closest forecast is Canyonlands Field, 71.5 nm (132.4 km) N. Retrieved 2020/04/05 18:34 UTC (4 hours ago):

TAF KCNY 051732Z 0518/0618 20018G26KT P6SM BKN250 FM060200 20013G19KT P6SM FEW100 SCT200 FM060900 19009KT P6SM FEW100 FEW250 FM061600 18022G29KT P6SM SCT250